sensor_id;sensor_type;location;lat;lon;timestamp;pressure;altitude;pressure_sealevel;temperature
43802;BMP280;29429;51.074;13.764;2023-03-01T00:01:40;101403.81;;;-2.19
43802;BMP280;29429;51.074;13.764;2023-03-01T00:04:07;101400.19;;;-2.17
43802;BMP280;29429;51.074;13.764;2023-03-01T00:06:34;101405.53;;;-2.18
43802;BMP280;29429;51.074;13.764;2023-03-01T00:09:01;101406.59;;;-2.22
43802;BMP280;29429;51.074;13.764;2023-03-01T00:11:30;101401.31;;;-2.21
43802;BMP280;29429;51.074;13.764;2023-03-01T00:14:00;101391.19;;;-2.27
43802;BMP280;29429;51.074;13.764;2023-03-01T00:16:32;101391.34;;;-2.30
43802;BMP280;29429;51.074;13.764;2023-03-01T00:19:00;101390.69;;;-2.33
43802;BMP280;29429;51.074;13.764;2023-03-01T00:21:27;101392.19;;;-2.29
43802;BMP280;29429;51.074;13.764;2023-03-01T00:23:55;101394.97;;;-2.32
43802;BMP280;29429;51.074;13.764;2023-03-01T00:26:24;101401.13;;;-2.33
43802;BMP280;29429;51.074;13.764;2023-03-01T00:28:52;101404.06;;;-2.39
43802;BMP280;29429;51.074;13.764;2023-03-01T00:31:25;101400.00;;;-2.45
43802;BMP280;29429;51.074;13.764;2023-03-01T00:33:54;101390.66;;;-2.49
43802;BMP280;29429;51.074;13.764;2023-03-01T00:36:29;101395.94;;;-2.51
43802;BMP280;29429;51.074;13.764;2023-03-01T00:38:57;101395.09;;;-2.51
43802;BMP280;29429;51.074;13.764;2023-03-01T00:41:26;101391.66;;;-2.52
43802;BMP280;29429;51.074;13.764;2023-03-01T00:43:54;101385.44;;;-2.49
43802;BMP280;29429;51.074;13.764;2023-03-01T00:46:25;101391.81;;;-2.55
43802;BMP280;29429;51.074;13.764;2023-03-01T00:48:54;101393.84;;;-2.60
43802;BMP280;29429;51.074;13.764;2023-03-01T00:51:25;101383.38;;;-2.60
43802;BMP280;29429;51.074;13.764;2023-03-01T00:53:58;101375.88;;;-2.66
43802;BMP280;29429;51.074;13.764;2023-03-01T00:56:26;101380.50;;;-2.71
43802;BMP280;29429;51.074;13.764;2023-03-01T00:58:53;101376.28;;;-2.73
43802;BMP280;29429;51.074;13.764;2023-03-01T01:01:27;101382.66;;;-2.79
43802;BMP280;29429;51.074;13.764;2023-03-01T01:04:11;101380.94;;;-2.80
43802;BMP280;29429;51.074;13.764;2023-03-01T01:06:44;101375.88;;;-2.83
43802;BMP280;29429;51.074;13.764;2023-03-01T01:09:17;101374.28;;;-2.85
43802;BMP280;29429;51.074;13.764;2023-03-01T01:11:50;101373.22;;;-2.81
43802;BMP280;29429;51.074;13.764;2023-03-01T01:14:19;101379.44;;;-2.84
43802;BMP280;29429;51.074;13.764;2023-03-01T01:16:48;101377.59;;;-2.82
43802;BMP280;29429;51.074;13.764;2023-03-01T01:19:16;101372.53;;;-2.85
43802;BMP280;29429;51.074;13.764;2023-03-01T01:21:43;101369.16;;;-2.87
43802;BMP280;29429;51.074;13.764;2023-03-01T01:24:11;101368.41;;;-2.89
43802;BMP280;29429;51.074;13.764;2023-03-01T01:26:38;101365.78;;;-2.89
43802;BMP280;29429;51.074;13.764;2023-03-01T01:29:06;101372.81;;;-2.91
43802;BMP280;29429;51.074;13.764;2023-03-01T01:31:36;101365.94;;;-2.92
43802;BMP280;29429;51.074;13.764;2023-03-01T01:34:06;101359.03;;;-2.93
43802;BMP280;29429;51.074;13.764;2023-03-01T01:36:34;101361.78;;;-2.96
43802;BMP280;29429;51.074;13.764;2023-03-01T01:39:01;101359.19;;;-2.96
43802;BMP280;29429;51.074;13.764;2023-03-01T01:41:29;101352.34;;;-2.98
43802;BMP280;29429;51.074;13.764;2023-03-01T01:44:24;101348.06;;;-2.99
43802;BMP280;29429;51.074;13.764;2023-03-01T01:47:01;101345.69;;;-3.04
43802;BMP280;29429;51.074;13.764;2023-03-01T01:52:31;101353.50;;;-3.04
43802;BMP280;29429;51.074;13.764;2023-03-01T01:55:09;101353.75;;;-3.09
43802;BMP280;29429;51.074;13.764;2023-03-01T01:57:44;101361.72;;;-3.12
43802;BMP280;29429;51.074;13.764;2023-03-01T02:02:54;101354.06;;;-3.15
43802;BMP280;29429;51.074;13.764;2023-03-01T02:08:25;101342.00;;;-3.17
43802;BMP280;29429;51.074;13.764;2023-03-01T02:10:56;101349.09;;;-3.19
43802;BMP280;29429;51.074;13.764;2023-03-01T02:13:23;101344.63;;;-3.17
43802;BMP280;29429;51.074;13.764;2023-03-01T02:15:50;101340.56;;;-3.23
43802;BMP280;29429;51.074;13.764;2023-03-01T02:18:20;101331.81;;;-3.22
43802;BMP280;29429;51.074;13.764;2023-03-01T02:21:23;101335.03;;;-3.17
43802;BMP280;29429;51.074;13.764;2023-03-01T02:23:54;101329.31;;;-3.23
43802;BMP280;29429;51.074;13.764;2023-03-01T02:26:33;101330.97;;;-3.22
43802;BMP280;29429;51.074;13.764;2023-03-01T02:29:01;101317.47;;;-3.30
43802;BMP280;29429;51.074;13.764;2023-03-01T02:31:28;101317.41;;;-3.29
43802;BMP280;29429;51.074;13.764;2023-03-01T02:34:17;101315.88;;;-3.33
43802;BMP280;29429;51.074;13.764;2023-03-01T02:36:55;101319.47;;;-3.35
43802;BMP280;29429;51.074;13.764;2023-03-01T02:39:36;101317.25;;;-3.43
43802;BMP280;29429;51.074;13.764;2023-03-01T02:42:12;101321.09;;;-3.50
43802;BMP280;29429;51.074;13.764;2023-03-01T02:44:41;101315.19;;;-3.53
43802;BMP280;29429;51.074;13.764;2023-03-01T02:47:08;101311.50;;;-3.49
43802;BMP280;29429;51.074;13.764;2023-03-01T02:49:36;101318.41;;;-3.48
43802;BMP280;29429;51.074;13.764;2023-03-01T02:52:45;101313.19;;;-3.48
43802;BMP280;29429;51.074;13.764;2023-03-01T02:55:16;101305.47;;;-3.50
43802;BMP280;29429;51.074;13.764;2023-03-01T02:57:46;101313.44;;;-3.53
43802;BMP280;29429;51.074;13.764;2023-03-01T03:00:34;101306.47;;;-3.52
43802;BMP280;29429;51.074;13.764;2023-03-01T03:03:03;101306.75;;;-3.58
43802;BMP280;29429;51.074;13.764;2023-03-01T03:05:32;101319.19;;;-3.63
43802;BMP280;29429;51.074;13.764;2023-03-01T03:08:02;101308.91;;;-3.66
43802;BMP280;29429;51.074;13.764;2023-03-01T03:10:38;101307.19;;;-3.67
43802;BMP280;29429;51.074;13.764;2023-03-01T03:13:10;101305.59;;;-3.70
43802;BMP280;29429;51.074;13.764;2023-03-01T03:15:40;101305.97;;;-3.78
43802;BMP280;29429;51.074;13.764;2023-03-01T03:18:12;101309.53;;;-3.79
43802;BMP280;29429;51.074;13.764;2023-03-01T03:20:41;101303.50;;;-3.81
43802;BMP280;29429;51.074;13.764;2023-03-01T03:23:08;101307.13;;;-3.83
43802;BMP280;29429;51.074;13.764;2023-03-01T03:25:35;101300.28;;;-3.86
43802;BMP280;29429;51.074;13.764;2023-03-01T03:28:06;101297.69;;;-3.86
43802;BMP280;29429;51.074;13.764;2023-03-01T03:30:40;101298.63;;;-3.87
43802;BMP280;29429;51.074;13.764;2023-03-01T03:33:11;101297.97;;;-3.92
43802;BMP280;29429;51.074;13.764;2023-03-01T03:35:50;101293.63;;;-3.91
43802;BMP280;29429;51.074;13.764;2023-03-01T03:38:19;101288.56;;;-3.94
43802;BMP280;29429;51.074;13.764;2023-03-01T03:41:02;101287.56;;;-3.92
43802;BMP280;29429;51.074;13.764;2023-03-01T03:43:33;101284.28;;;-3.95
43802;BMP280;29429;51.074;13.764;2023-03-01T03:46:01;101288.63;;;-3.96
43802;BMP280;29429;51.074;13.764;2023-03-01T03:48:39;101280.06;;;-3.98
43802;BMP280;29429;51.074;13.764;2023-03-01T03:51:10;101280.97;;;-3.99
43802;BMP280;29429;51.074;13.764;2023-03-01T03:53:38;101281.72;;;-3.97
43802;BMP280;29429;51.074;13.764;2023-03-01T03:56:06;101280.13;;;-3.99
43802;BMP280;29429;51.074;13.764;2023-03-01T03:58:33;101284.50;;;-4.00
43802;BMP280;29429;51.074;13.764;2023-03-01T04:01:00;101283.66;;;-4.00
43802;BMP280;29429;51.074;13.764;2023-03-01T04:03:29;101285.47;;;-4.02
43802;BMP280;29429;51.074;13.764;2023-03-01T04:05:59;101294.38;;;-4.06
43802;BMP280;29429;51.074;13.764;2023-03-01T04:08:27;101297.72;;;-4.04
43802;BMP280;29429;51.074;13.764;2023-03-01T04:11:00;101302.28;;;-4.08
43802;BMP280;29429;51.074;13.764;2023-03-01T04:13:48;101303.31;;;-4.12
43802;BMP280;29429;51.074;13.764;2023-03-01T04:16:16;101304.22;;;-4.13
43802;BMP280;29429;51.074;13.764;2023-03-01T04:18:43;101304.22;;;-4.13
43802;BMP280;29429;51.074;13.764;2023-03-01T04:21:11;101297.19;;;-4.11
43802;BMP280;29429;51.074;13.764;2023-03-01T04:23:38;101303.03;;;-4.06
43802;BMP280;29429;51.074;13.764;2023-03-01T04:26:07;101295.34;;;-4.09
43802;BMP280;29429;51.074;13.764;2023-03-01T04:28:39;101293.66;;;-4.10
43802;BMP280;29429;51.074;13.764;2023-03-01T04:31:18;101295.50;;;-4.12
43802;BMP280;29429;51.074;13.764;2023-03-01T04:33:54;101290.56;;;-4.18
43802;BMP280;29429;51.074;13.764;2023-03-01T04:36:27;101299.31;;;-4.19
43802;BMP280;29429;51.074;13.764;2023-03-01T04:38:55;101291.56;;;-4.20
43802;BMP280;29429;51.074;13.764;2023-03-01T04:41:24;101284.88;;;-4.26
43802;BMP280;29429;51.074;13.764;2023-03-01T04:43:52;101273.72;;;-4.28
43802;BMP280;29429;51.074;13.764;2023-03-01T04:46:20;101287.28;;;-4.21
43802;BMP280;29429;51.074;13.764;2023-03-01T04:48:48;101290.66;;;-4.19
43802;BMP280;29429;51.074;13.764;2023-03-01T04:51:15;101292.28;;;-4.17
43802;BMP280;29429;51.074;13.764;2023-03-01T04:53:44;101296.59;;;-4.16
43802;BMP280;29429;51.074;13.764;2023-03-01T04:56:11;101302.78;;;-4.18
43802;BMP280;29429;51.074;13.764;2023-03-01T04:58:41;101296.78;;;-4.20
43802;BMP280;29429;51.074;13.764;2023-03-01T05:01:17;101295.97;;;-4.21
43802;BMP280;29429;51.074;13.764;2023-03-01T05:03:51;101293.34;;;-4.21
43802;BMP280;29429;51.074;13.764;2023-03-01T05:06:19;101293.63;;;-4.27
43802;BMP280;29429;51.074;13.764;2023-03-01T05:08:46;101298.91;;;-4.28
43802;BMP280;29429;51.074;13.764;2023-03-01T05:11:13;101293.00;;;-4.32
43802;BMP280;29429;51.074;13.764;2023-03-01T05:13:41;101287.00;;;-4.34
43802;BMP280;29429;51.074;13.764;2023-03-01T05:16:09;101291.31;;;-4.33
43802;BMP280;29429;51.074;13.764;2023-03-01T05:18:40;101291.31;;;-4.33
43802;BMP280;29429;51.074;13.764;2023-03-01T05:21:11;101290.59;;;-4.37
43802;BMP280;29429;51.074;13.764;2023-03-01T05:23:39;101287.31;;;-4.40
43802;BMP280;29429;51.074;13.764;2023-03-01T05:26:07;101294.19;;;-4.39
43802;BMP280;29429;51.074;13.764;2023-03-01T05:28:52;101283.03;;;-4.41
43802;BMP280;29429;51.074;13.764;2023-03-01T05:31:26;101282.16;;;-4.42
43802;BMP280;29429;51.074;13.764;2023-03-01T05:33:53;101283.03;;;-4.41
43802;BMP280;29429;51.074;13.764;2023-03-01T05:36:20;101271.75;;;-4.42
43802;BMP280;29429;51.074;13.764;2023-03-01T05:38:47;101282.88;;;-4.38
43802;BMP280;29429;51.074;13.764;2023-03-01T05:41:15;101275.06;;;-4.38
43802;BMP280;29429;51.074;13.764;2023-03-01T05:43:43;101276.78;;;-4.37
43802;BMP280;29429;51.074;13.764;2023-03-01T05:46:12;101271.63;;;-4.39
43802;BMP280;29429;51.074;13.764;2023-03-01T05:48:40;101274.16;;;-4.37
43802;BMP280;29429;51.074;13.764;2023-03-01T05:51:07;101277.53;;;-4.35
43802;BMP280;29429;51.074;13.764;2023-03-01T05:53:34;101275.84;;;-4.36
43802;BMP280;29429;51.074;13.764;2023-03-01T05:56:04;101275.91;;;-4.38
43802;BMP280;29429;51.074;13.764;2023-03-01T05:58:31;101288.00;;;-4.37
43802;BMP280;29429;51.074;13.764;2023-03-01T06:00:58;101288.09;;;-4.38
43802;BMP280;29429;51.074;13.764;2023-03-01T06:03:25;101284.59;;;-4.37
43802;BMP280;29429;51.074;13.764;2023-03-01T06:06:04;101287.81;;;-4.32
43802;BMP280;29429;51.074;13.764;2023-03-01T06:08:32;101285.47;;;-4.38
43802;BMP280;29429;51.074;13.764;2023-03-01T06:10:59;101293.06;;;-4.34
43802;BMP280;29429;51.074;13.764;2023-03-01T06:13:26;101291.03;;;-4.27
43802;BMP280;29429;51.074;13.764;2023-03-01T06:15:53;101289.09;;;-4.23
43802;BMP280;29429;51.074;13.764;2023-03-01T06:18:21;101287.34;;;-4.23
43802;BMP280;29429;51.074;13.764;2023-03-01T06:20:55;101282.00;;;-4.20
43802;BMP280;29429;51.074;13.764;2023-03-01T06:23:23;101281.25;;;-4.22
43802;BMP280;29429;51.074;13.764;2023-03-01T06:25:51;101295.59;;;-4.13
43802;BMP280;29429;51.074;13.764;2023-03-01T06:28:18;101293.66;;;-4.10
43802;BMP280;29429;51.074;13.764;2023-03-01T06:30:45;101302.88;;;-4.03
43802;BMP280;29429;51.074;13.764;2023-03-01T06:33:12;101295.69;;;-3.98
43802;BMP280;29429;51.074;13.764;2023-03-01T06:35:39;101299.69;;;-3.91
43802;BMP280;29429;51.074;13.764;2023-03-01T06:38:07;101301.06;;;-3.84
43802;BMP280;29429;51.074;13.764;2023-03-01T06:40:34;101298.16;;;-3.78
43802;BMP280;29429;51.074;13.764;2023-03-01T06:43:02;101298.63;;;-3.70
43802;BMP280;29429;51.074;13.764;2023-03-01T06:45:28;101305.38;;;-3.65
43802;BMP280;29429;51.074;13.764;2023-03-01T06:48:07;101306.91;;;-3.61
43802;BMP280;29429;51.074;13.764;2023-03-01T06:50:35;101306.81;;;-3.60
43802;BMP280;29429;51.074;13.764;2023-03-01T06:53:09;101306.47;;;-3.52
43802;BMP280;29429;51.074;13.764;2023-03-01T07:00:22;101298.91;;;-3.41
43802;BMP280;29429;51.074;13.764;2023-03-01T07:02:49;101282.47;;;-3.42
43802;BMP280;29429;51.074;13.764;2023-03-01T07:05:17;101281.81;;;-3.30
43802;BMP280;29429;51.074;13.764;2023-03-01T07:07:44;101279.66;;;-3.22
43802;BMP280;29429;51.074;13.764;2023-03-01T07:10:17;101280.59;;;-3.07
43802;BMP280;29429;51.074;13.764;2023-03-01T07:12:45;101282.66;;;-2.96
43802;BMP280;29429;51.074;13.764;2023-03-01T07:15:15;101276.97;;;-2.87
43802;BMP280;29429;51.074;13.764;2023-03-01T07:17:53;101291.56;;;-2.68
43802;BMP280;29429;51.074;13.764;2023-03-01T07:20:20;101289.28;;;-2.58
43802;BMP280;29429;51.074;13.764;2023-03-01T07:22:54;101286.00;;;-2.46
43802;BMP280;29429;51.074;13.764;2023-03-01T07:25:21;101277.94;;;-2.41
43802;BMP280;29429;51.074;13.764;2023-03-01T07:27:51;101279.28;;;-2.34
43802;BMP280;29429;51.074;13.764;2023-03-01T07:30:20;101278.59;;;-2.22
43802;BMP280;29429;51.074;13.764;2023-03-01T07:32:48;101280.09;;;-2.18
43802;BMP280;29429;51.074;13.764;2023-03-01T07:35:15;101274.56;;;-2.12
43802;BMP280;29429;51.074;13.764;2023-03-01T07:37:45;101269.53;;;-2.01
43802;BMP280;29429;51.074;13.764;2023-03-01T07:40:13;101279.31;;;-1.89
43802;BMP280;29429;51.074;13.764;2023-03-01T07:42:40;101260.66;;;-1.83
43802;BMP280;29429;51.074;13.764;2023-03-01T07:45:07;101267.03;;;-1.73
43802;BMP280;29429;51.074;13.764;2023-03-01T07:47:34;101270.06;;;-1.65
43802;BMP280;29429;51.074;13.764;2023-03-01T07:50:04;101269.22;;;-1.65
43802;BMP280;29429;51.074;13.764;2023-03-01T07:52:41;101271.09;;;-1.53
43802;BMP280;29429;51.074;13.764;2023-03-01T07:55:09;101267.44;;;-1.51
43802;BMP280;29429;51.074;13.764;2023-03-01T07:57:38;101263.91;;;-1.50
43802;BMP280;29429;51.074;13.764;2023-03-01T08:00:14;101258.97;;;-1.40
43802;BMP280;29429;51.074;13.764;2023-03-01T08:02:51;101257.59;;;-1.32
43802;BMP280;29429;51.074;13.764;2023-03-01T08:05:19;101249.38;;;-1.26
43802;BMP280;29429;51.074;13.764;2023-03-01T08:07:46;101237.41;;;-1.15
43802;BMP280;29429;51.074;13.764;2023-03-01T08:10:13;101235.00;;;-1.04
43802;BMP280;29429;51.074;13.764;2023-03-01T08:12:40;101238.16;;;-0.99
43802;BMP280;29429;51.074;13.764;2023-03-01T08:15:08;101242.06;;;-0.92
43802;BMP280;29429;51.074;13.764;2023-03-01T08:17:35;101241.88;;;-0.89
43802;BMP280;29429;51.074;13.764;2023-03-01T08:20:03;101237.19;;;-0.84
43802;BMP280;29429;51.074;13.764;2023-03-01T08:22:32;101235.13;;;-0.79
43802;BMP280;29429;51.074;13.764;2023-03-01T08:24:59;101229.72;;;-0.76
43802;BMP280;29429;51.074;13.764;2023-03-01T08:27:26;101229.34;;;-0.70
43802;BMP280;29429;51.074;13.764;2023-03-01T08:30:03;101228.97;;;-0.64
43802;BMP280;29429;51.074;13.764;2023-03-01T08:32:55;101232.50;;;-0.51
43802;BMP280;29429;51.074;13.764;2023-03-01T08:35:22;101231.16;;;-0.44
43802;BMP280;29429;51.074;13.764;2023-03-01T08:37:49;101220.38;;;-0.39
43802;BMP280;29429;51.074;13.764;2023-03-01T08:40:16;101215.59;;;-0.33
43802;BMP280;29429;51.074;13.764;2023-03-01T08:42:43;101226.41;;;-0.25
43802;BMP280;29429;51.074;13.764;2023-03-01T08:45:12;101219.94;;;-0.19
43802;BMP280;29429;51.074;13.764;2023-03-01T08:47:52;101214.28;;;-0.13
43802;BMP280;29429;51.074;13.764;2023-03-01T08:50:22;101213.69;;;-0.04
43802;BMP280;29429;51.074;13.764;2023-03-01T08:53:19;101222.63;;;0.06
43802;BMP280;29429;51.074;13.764;2023-03-01T08:55:46;101220.44;;;0.13
43802;BMP280;29429;51.074;13.764;2023-03-01T08:58:16;101218.66;;;0.13
43802;BMP280;29429;51.074;13.764;2023-03-01T09:00:43;101219.28;;;0.17
43802;BMP280;29429;51.074;13.764;2023-03-01T09:03:10;101219.41;;;0.28
43802;BMP280;29429;51.074;13.764;2023-03-01T09:05:37;101208.31;;;0.37
43802;BMP280;29429;51.074;13.764;2023-03-01T09:08:04;101207.69;;;0.46
43802;BMP280;29429;51.074;13.764;2023-03-01T09:10:38;101202.03;;;0.52
43802;BMP280;29429;51.074;13.764;2023-03-01T09:13:12;101198.66;;;0.63
43802;BMP280;29429;51.074;13.764;2023-03-01T09:16:05;101187.22;;;0.64
43802;BMP280;29429;51.074;13.764;2023-03-01T09:18:33;101197.50;;;0.79
43802;BMP280;29429;51.074;13.764;2023-03-01T09:21:09;101183.72;;;0.88
43802;BMP280;29429;51.074;13.764;2023-03-01T09:23:44;101178.75;;;0.96
43802;BMP280;29429;51.074;13.764;2023-03-01T09:26:21;101176.22;;;1.07
43802;BMP280;29429;51.074;13.764;2023-03-01T09:28:54;101163.38;;;1.15
43802;BMP280;29429;51.074;13.764;2023-03-01T09:31:23;101165.81;;;1.18
43802;BMP280;29429;51.074;13.764;2023-03-01T09:33:52;101167.97;;;1.24
43802;BMP280;29429;51.074;13.764;2023-03-01T09:36:24;101164.69;;;1.34
43802;BMP280;29429;51.074;13.764;2023-03-01T09:38:55;101168.53;;;1.41
43802;BMP280;29429;51.074;13.764;2023-03-01T09:41:51;101168.22;;;1.45
43802;BMP280;29429;51.074;13.764;2023-03-01T09:44:48;101175.06;;;1.48
43802;BMP280;29429;51.074;13.764;2023-03-01T09:47:21;101179.53;;;1.58
43802;BMP280;29429;51.074;13.764;2023-03-01T09:50:18;101167.25;;;1.70
43802;BMP280;29429;51.074;13.764;2023-03-01T09:53:02;101164.69;;;1.81
43802;BMP280;29429;51.074;13.764;2023-03-01T09:55:55;101156.97;;;1.91
43802;BMP280;29429;51.074;13.764;2023-03-01T09:58:59;101160.69;;;1.99
43802;BMP280;29429;51.074;13.764;2023-03-01T10:01:43;101157.97;;;2.12
43802;BMP280;29429;51.074;13.764;2023-03-01T10:04:41;101153.47;;;2.25
43802;BMP280;29429;51.074;13.764;2023-03-01T10:10:28;101149.41;;;2.43
43802;BMP280;29429;51.074;13.764;2023-03-01T10:12:56;101148.59;;;2.54
43802;BMP280;29429;51.074;13.764;2023-03-01T10:15:44;101147.53;;;2.67
43802;BMP280;29429;51.074;13.764;2023-03-01T10:18:19;101147.63;;;2.77
43802;BMP280;29429;51.074;13.764;2023-03-01T10:20:53;101157.31;;;2.87
43802;BMP280;29429;51.074;13.764;2023-03-01T10:23:24;101154.00;;;2.96
43802;BMP280;29429;51.074;13.764;2023-03-01T10:26:04;101150.75;;;3.04
43802;BMP280;29429;51.074;13.764;2023-03-01T10:28:50;101144.84;;;3.12
43802;BMP280;29429;51.074;13.764;2023-03-01T10:31:40;101137.16;;;3.20
43802;BMP280;29429;51.074;13.764;2023-03-01T10:34:27;101136.41;;;3.29
43802;BMP280;29429;51.074;13.764;2023-03-01T10:37:15;101144.69;;;3.35
43802;BMP280;29429;51.074;13.764;2023-03-01T10:40:08;101131.00;;;3.41
43802;BMP280;29429;51.074;13.764;2023-03-01T10:42:48;101120.91;;;3.46
43802;BMP280;29429;51.074;13.764;2023-03-01T10:45:31;101124.22;;;3.59
43802;BMP280;29429;51.074;13.764;2023-03-01T10:48:15;101122.25;;;3.73
43802;BMP280;29429;51.074;13.764;2023-03-01T10:53:47;101110.41;;;3.88
43802;BMP280;29429;51.074;13.764;2023-03-01T10:56:15;101098.38;;;3.95
43802;BMP280;29429;51.074;13.764;2023-03-01T10:59:00;101099.00;;;4.08
43802;BMP280;29429;51.074;13.764;2023-03-01T11:01:37;101086.59;;;4.19
43802;BMP280;29429;51.074;13.764;2023-03-01T11:04:13;101094.44;;;4.30
43802;BMP280;29429;51.074;13.764;2023-03-01T11:06:58;101089.19;;;4.40
43802;BMP280;29429;51.074;13.764;2023-03-01T11:09:25;101089.78;;;4.44
43802;BMP280;29429;51.074;13.764;2023-03-01T11:11:59;101083.66;;;4.53
43802;BMP280;29429;51.074;13.764;2023-03-01T11:14:36;101083.84;;;4.61
43802;BMP280;29429;51.074;13.764;2023-03-01T11:17:21;101076.94;;;4.69
43802;BMP280;29429;51.074;13.764;2023-03-01T11:20:35;101076.53;;;4.74
43802;BMP280;29429;51.074;13.764;2023-03-01T11:23:13;101077.78;;;4.70
43802;BMP280;29429;51.074;13.764;2023-03-01T11:25:54;101077.69;;;4.81
43802;BMP280;29429;51.074;13.764;2023-03-01T11:28:24;101072.41;;;4.90
43802;BMP280;29429;51.074;13.764;2023-03-01T11:31:05;101070.19;;;4.96
43802;BMP280;29429;51.074;13.764;2023-03-01T11:36:44;101068.84;;;5.11
43802;BMP280;29429;51.074;13.764;2023-03-01T11:42:22;101062.44;;;5.23
43802;BMP280;29429;51.074;13.764;2023-03-01T11:44:55;101066.91;;;5.32
43802;BMP280;29429;51.074;13.764;2023-03-01T11:50:50;101064.69;;;5.37
43802;BMP280;29429;51.074;13.764;2023-03-01T11:56:43;101057.00;;;5.43
43802;BMP280;29429;51.074;13.764;2023-03-01T12:11:29;101036.69;;;5.63
43802;BMP280;29429;51.074;13.764;2023-03-01T12:26:05;101020.66;;;5.65
43802;BMP280;29429;51.074;13.764;2023-03-01T12:32:05;101018.97;;;5.73
43802;BMP280;29429;51.074;13.764;2023-03-01T12:37:31;101011.84;;;5.83
43802;BMP280;29429;51.074;13.764;2023-03-01T12:49:35;101008.66;;;5.89
43802;BMP280;29429;51.074;13.764;2023-03-01T12:52:56;101009.50;;;5.90
43802;BMP280;29429;51.074;13.764;2023-03-01T12:55:20;101001.00;;;5.86
43802;BMP280;29429;51.074;13.764;2023-03-01T13:09:56;100981.63;;;5.76
43802;BMP280;29429;51.074;13.764;2023-03-01T13:18:00;100982.47;;;5.86
43802;BMP280;29429;51.074;13.764;2023-03-01T13:20:50;100979.66;;;5.88
43802;BMP280;29429;51.074;13.764;2023-03-01T13:26:16;100987.72;;;5.96
43802;BMP280;29429;51.074;13.764;2023-03-01T13:34:00;100977.00;;;5.97
43802;BMP280;29429;51.074;13.764;2023-03-01T13:44:36;100972.06;;;6.12
43802;BMP280;29429;51.074;13.764;2023-03-01T13:49:58;100970.25;;;6.12
43802;BMP280;29429;51.074;13.764;2023-03-01T13:52:43;100957.28;;;6.09
43802;BMP280;29429;51.074;13.764;2023-03-01T13:57:49;100962.47;;;6.11
43802;BMP280;29429;51.074;13.764;2023-03-01T14:03:19;100962.47;;;6.11
43802;BMP280;29429;51.074;13.764;2023-03-01T14:06:46;100958.81;;;6.12
43802;BMP280;29429;51.074;13.764;2023-03-01T14:09:24;100954.34;;;6.12
43802;BMP280;29429;51.074;13.764;2023-03-01T14:15:41;100941.97;;;6.13
43802;BMP280;29429;51.074;13.764;2023-03-01T14:18:36;100946.13;;;6.16
43802;BMP280;29429;51.074;13.764;2023-03-01T14:21:09;100948.78;;;6.16
43802;BMP280;29429;51.074;13.764;2023-03-01T14:23:40;100951.13;;;6.19
43802;BMP280;29429;51.074;13.764;2023-03-01T14:26:09;100947.19;;;6.23
43802;BMP280;29429;51.074;13.764;2023-03-01T14:28:41;100940.09;;;6.23
43802;BMP280;29429;51.074;13.764;2023-03-01T14:31:38;100940.63;;;6.27
43802;BMP280;29429;51.074;13.764;2023-03-01T14:34:24;100938.00;;;6.27
43802;BMP280;29429;51.074;13.764;2023-03-01T14:36:51;100932.97;;;6.24
43802;BMP280;29429;51.074;13.764;2023-03-01T14:39:25;100943.00;;;6.30
43802;BMP280;29429;51.074;13.764;2023-03-01T14:41:53;100927.41;;;6.27
43802;BMP280;29429;51.074;13.764;2023-03-01T14:44:23;100920.13;;;6.29
43802;BMP280;29429;51.074;13.764;2023-03-01T14:46:56;100924.59;;;6.28
43802;BMP280;29429;51.074;13.764;2023-03-01T14:49:33;100912.63;;;6.24
43802;BMP280;29429;51.074;13.764;2023-03-01T14:52:27;100910.13;;;6.23
43802;BMP280;29429;51.074;13.764;2023-03-01T14:54:57;100907.06;;;6.18
43802;BMP280;29429;51.074;13.764;2023-03-01T14:57:26;100904.31;;;6.19
43802;BMP280;29429;51.074;13.764;2023-03-01T14:59:58;100900.81;;;6.19
43802;BMP280;29429;51.074;13.764;2023-03-01T15:02:29;100906.22;;;6.17
43802;BMP280;29429;51.074;13.764;2023-03-01T15:05:02;100909.88;;;6.16
43802;BMP280;29429;51.074;13.764;2023-03-01T15:07:40;100912.16;;;6.11
43802;BMP280;29429;51.074;13.764;2023-03-01T15:10:26;100911.00;;;6.13
43802;BMP280;29429;51.074;13.764;2023-03-01T15:12:54;100907.81;;;6.10
43802;BMP280;29429;51.074;13.764;2023-03-01T15:17:59;100905.75;;;6.04
43802;BMP280;29429;51.074;13.764;2023-03-01T15:20:28;100912.88;;;6.03
43802;BMP280;29429;51.074;13.764;2023-03-01T15:22:57;100903.56;;;5.99
43802;BMP280;29429;51.074;13.764;2023-03-01T15:25:29;100901.75;;;6.00
43802;BMP280;29429;51.074;13.764;2023-03-01T15:27:59;100902.88;;;5.97
43802;BMP280;29429;51.074;13.764;2023-03-01T15:30:35;100902.59;;;5.91
43802;BMP280;29429;51.074;13.764;2023-03-01T15:33:33;100894.41;;;5.84
43802;BMP280;29429;51.074;13.764;2023-03-01T15:36:03;100893.06;;;5.71
43802;BMP280;29429;51.074;13.764;2023-03-01T15:38:51;100899.19;;;5.71
43802;BMP280;29429;51.074;13.764;2023-03-01T15:41:47;100899.75;;;5.65
43802;BMP280;29429;51.074;13.764;2023-03-01T15:44:28;100898.69;;;5.48
43802;BMP280;29429;51.074;13.764;2023-03-01T15:47:29;100894.53;;;5.46
43802;BMP280;29429;51.074;13.764;2023-03-01T15:49:58;100897.16;;;5.46
43802;BMP280;29429;51.074;13.764;2023-03-01T15:52:39;100890.91;;;5.47
43802;BMP280;29429;51.074;13.764;2023-03-01T15:55:18;100887.31;;;5.48
43802;BMP280;29429;51.074;13.764;2023-03-01T15:57:46;100884.22;;;5.43
43802;BMP280;29429;51.074;13.764;2023-03-01T16:00:17;100876.88;;;5.37
43802;BMP280;29429;51.074;13.764;2023-03-01T16:02:44;100885.66;;;5.37
43802;BMP280;29429;51.074;13.764;2023-03-01T16:05:36;100876.16;;;5.35
43802;BMP280;29429;51.074;13.764;2023-03-01T16:08:05;100874.81;;;5.31
43802;BMP280;29429;51.074;13.764;2023-03-01T16:10:33;100874.81;;;5.31
43802;BMP280;29429;51.074;13.764;2023-03-01T16:13:01;100876.75;;;5.29
43802;BMP280;29429;51.074;13.764;2023-03-01T16:15:32;100887.34;;;5.29
43802;BMP280;29429;51.074;13.764;2023-03-01T16:18:01;100883.56;;;5.22
43802;BMP280;29429;51.074;13.764;2023-03-01T16:20:29;100892.09;;;5.16
43802;BMP280;29429;51.074;13.764;2023-03-01T16:23:06;100892.66;;;5.10
43802;BMP280;29429;51.074;13.764;2023-03-01T16:25:35;100889.19;;;5.00